Round Lake, Minnesota
Current Conditions -  °F | °C
As of 1:15 PM on Saturday 25 Oct 2014 (Local Time) from KOTG Reporting Station
Clear Clear  
Wind Chill: 63°   Ceiling: Unl
Heat Index: 63°   Visibility: 10mi
Dew Point: 30°   Wind: 13mph
Humidity: 30%   Direction: 350°N
Pressure: 30.14"   Gusts: 16mph
Location:  43.54°N, 95.47°W
Report Text: KOTG 251815Z AUTO 35011G14KT 10SM CLR 17/M01 A3014 RMK AO1
Loading
Personal Weather Stations






























Interactive Weather Map
Tropical Storm Tracking
New forecast layout! Learn more

10-Day Weather Forecast

Advertisements
Track Severe Weather on mobile